Time;durP1;ratioP1;P1;durP2;ratioP2;P2;SDS_P1;SDS_P2;PMS_P1;PMS_P2;Temp;Humidity;BMP_temperature;BMP_pressure;BME280_temperature;BME280_humidity;BME280_pressure;Samples;Min_cycle;Max_cycle;Signal;HPM_P1;HPM_P2
2023/06/24 00:01:41;;;;;;;25.03;23.30;;;;;;;;;;5103915;28;20491;-85
2023/06/24 00:04:08;;;;;;;24.00;22.57;;;;;;;;;;5104167;28;20891;-85
2023/06/24 00:06:36;;;;;;;24.10;22.60;;;;;;;;;;5103133;28;20480;-84
2023/06/24 00:09:04;;;;;;;23.43;22.13;;;;;;;;;;5106473;28;20463;-84
2023/06/24 00:11:32;;;;;;;23.70;22.00;;;;;;;;;;5108623;28;20472;-84
2023/06/24 00:13:59;;;;;;;25.00;23.30;;;;;;;;;;5108752;28;20427;-85
2023/06/24 00:16:29;;;;;;;23.90;22.40;;;;;;;;;;5105053;28;20450;-85
2023/06/24 00:18:58;;;;;;;24.50;23.10;;;;;;;;;;5105741;28;20510;-85
2023/06/24 00:21:29;;;;;;;22.87;21.67;;;;;;;;;;5104196;28;20427;-83
2023/06/24 00:23:57;;;;;;;24.70;23.20;;;;;;;;;;5104830;28;20419;-85
2023/06/24 00:26:24;;;;;;;24.37;22.77;;;;;;;;;;5102916;28;21006;-85
2023/06/24 00:28:52;;;;;;;24.67;23.13;;;;;;;;;;5104641;28;20443;-85
2023/06/24 00:31:20;;;;;;;24.23;22.77;;;;;;;;;;5104294;28;20820;-85
2023/06/24 00:33:47;;;;;;;23.77;22.37;;;;;;;;;;5104260;28;20431;-83
2023/06/24 00:36:14;;;;;;;24.67;23.17;;;;;;;;;;5104284;28;20414;-84
2023/06/24 00:38:41;;;;;;;23.87;22.30;;;;;;;;;;5104625;28;20811;-85
2023/06/24 00:41:08;;;;;;;25.60;23.80;;;;;;;;;;5104521;28;20471;-84
2023/06/24 00:43:36;;;;;;;25.00;23.30;;;;;;;;;;5104109;28;20448;-85
2023/06/24 00:46:06;;;;;;;24.07;22.43;;;;;;;;;;5103836;28;20483;-85
2023/06/24 00:48:33;;;;;;;25.33;23.70;;;;;;;;;;5103976;28;20452;-85
2023/06/24 00:51:00;;;;;;;24.73;23.13;;;;;;;;;;5103755;28;20467;-85
2023/06/24 00:53:28;;;;;;;25.17;23.63;;;;;;;;;;5103142;28;20432;-85
2023/06/24 00:55:55;;;;;;;25.33;23.73;;;;;;;;;;5103565;28;20926;-84
2023/06/24 00:58:22;;;;;;;25.73;24.23;;;;;;;;;;5103298;28;20448;-85
2023/06/24 01:00:57;;;;;;;26.20;24.27;;;;;;;;;;5102529;28;20899;-85
2023/06/24 01:03:25;;;;;;;25.13;23.50;;;;;;;;;;5103622;28;20448;-85
2023/06/24 01:05:53;;;;;;;25.20;23.50;;;;;;;;;;5102987;28;20457;-85
2023/06/24 01:08:22;;;;;;;26.37;24.77;;;;;;;;;;5103546;28;20524;-83
2023/06/24 01:10:50;;;;;;;26.47;24.67;;;;;;;;;;5102588;28;20999;-84
2023/06/24 01:13:17;;;;;;;25.90;24.30;;;;;;;;;;5103512;28;20445;-84
2023/06/24 01:15:45;;;;;;;25.50;23.80;;;;;;;;;;5102490;28;20540;-86
2023/06/24 01:18:13;;;;;;;25.73;24.13;;;;;;;;;;5102658;28;20417;-84
2023/06/24 01:20:46;;;;;;;26.60;24.80;;;;;;;;;;5102817;28;20975;-85
2023/06/24 01:23:32;;;;;;;26.63;24.77;;;;;;;;;;5103125;28;20433;-84
2023/06/24 01:26:29;;;;;;;25.63;24.13;;;;;;;;;;5103012;28;20468;-84
2023/06/24 01:29:08;;;;;;;25.10;23.70;;;;;;;;;;5079796;28;20802;-85
2023/06/24 01:31:44;;;;;;;26.03;24.30;;;;;;;;;;5102036;28;20465;-85
2023/06/24 01:34:16;;;;;;;26.43;24.60;;;;;;;;;;5102579;28;20451;-85
2023/06/24 01:36:45;;;;;;;26.47;24.67;;;;;;;;;;5102810;28;20421;-84
2023/06/24 01:39:13;;;;;;;26.80;24.87;;;;;;;;;;5102902;28;20507;-84
2023/06/24 01:41:42;;;;;;;25.50;23.60;;;;;;;;;;5102525;28;20444;-84
2023/06/24 01:44:11;;;;;;;27.27;25.10;;;;;;;;;;5103390;28;20465;-85
2023/06/24 01:46:38;;;;;;;26.07;24.47;;;;;;;;;;5101800;28;20535;-84
2023/06/24 01:49:09;;;;;;;24.80;23.30;;;;;;;;;;5102376;28;20440;-84
2023/06/24 01:51:37;;;;;;;26.63;24.23;;;;;;;;;;5102652;28;20576;-83
2023/06/24 01:54:06;;;;;;;26.33;24.63;;;;;;;;;;5103156;28;20444;-84
2023/06/24 01:56:35;;;;;;;25.23;23.63;;;;;;;;;;5102210;28;20419;-84
2023/06/24 01:59:04;;;;;;;25.80;23.43;;;;;;;;;;5102569;28;21012;-85
2023/06/24 02:01:33;;;;;;;24.90;23.33;;;;;;;;;;5101623;28;20484;-85
2023/06/24 02:04:01;;;;;;;24.60;23.10;;;;;;;;;;5103007;28;20456;-84
2023/06/24 02:06:30;;;;;;;26.30;24.63;;;;;;;;;;5102120;28;20447;-85
2023/06/24 02:08:58;;;;;;;23.87;22.47;;;;;;;;;;5103185;28;20506;-85
2023/06/24 02:11:27;;;;;;;25.90;24.10;;;;;;;;;;5102174;28;20495;-84
2023/06/24 02:13:55;;;;;;;26.13;24.37;;;;;;;;;;5102817;28;20471;-85
2023/06/24 02:16:22;;;;;;;26.10;24.47;;;;;;;;;;5100786;28;20518;-85
2023/06/24 02:18:49;;;;;;;25.67;23.87;;;;;;;;;;5100986;28;20468;-83
2023/06/24 02:21:19;;;;;;;25.30;23.40;;;;;;;;;;5100204;28;20476;-85
2023/06/24 02:23:48;;;;;;;25.10;23.53;;;;;;;;;;5101312;28;20446;-85
2023/06/24 02:26:16;;;;;;;25.00;23.20;;;;;;;;;;5102004;28;20486;-85
2023/06/24 02:28:45;;;;;;;24.50;23.20;;;;;;;;;;5101801;28;20529;-85
2023/06/24 02:31:13;;;;;;;25.77;23.97;;;;;;;;;;5102586;28;20831;-85
2023/06/24 02:33:41;;;;;;;23.83;22.50;;;;;;;;;;5101751;28;20486;-85
2023/06/24 02:36:08;;;;;;;25.07;23.47;;;;;;;;;;5101150;28;20448;-85
2023/06/24 02:38:35;;;;;;;26.97;24.53;;;;;;;;;;5102792;28;20463;-84
2023/06/24 02:41:04;;;;;;;25.73;23.27;;;;;;;;;;5101972;28;20452;-86
2023/06/24 02:43:31;;;;;;;25.97;24.10;;;;;;;;;;5101725;28;20472;-84
2023/06/24 02:46:00;;;;;;;25.97;24.17;;;;;;;;;;5101825;28;20530;-85
2023/06/24 02:48:28;;;;;;;25.30;23.80;;;;;;;;;;5102726;28;20536;-85
2023/06/24 02:50:55;;;;;;;26.63;24.77;;;;;;;;;;5101705;28;20479;-84
2023/06/24 02:53:22;;;;;;;25.77;24.23;;;;;;;;;;5102005;28;20490;-84
2023/06/24 02:55:49;;;;;;;25.13;23.70;;;;;;;;;;5102551;28;20427;-83
2023/06/24 02:58:18;;;;;;;24.67;23.17;;;;;;;;;;5102038;28;20457;-86
2023/06/24 03:00:45;;;;;;;24.57;23.17;;;;;;;;;;5100429;28;20514;-85
2023/06/24 03:03:12;;;;;;;25.00;23.50;;;;;;;;;;5100571;28;20477;-84
2023/06/24 03:05:40;;;;;;;24.60;23.03;;;;;;;;;;5100623;28;20451;-84
2023/06/24 03:08:07;;;;;;;24.70;23.30;;;;;;;;;;5101326;28;20453;-85
2023/06/24 03:10:34;;;;;;;25.90;24.30;;;;;;;;;;5101167;28;20478;-86
2023/06/24 03:13:01;;;;;;;26.17;24.37;;;;;;;;;;5101160;28;20439;-85
2023/06/24 03:15:29;;;;;;;26.17;24.33;;;;;;;;;;5100486;28;20433;-86
2023/06/24 03:17:56;;;;;;;25.30;23.50;;;;;;;;;;5101538;28;20455;-84
2023/06/24 03:20:24;;;;;;;26.30;24.17;;;;;;;;;;5101772;28;20478;-83
2023/06/24 03:22:52;;;;;;;25.70;23.80;;;;;;;;;;5101635;28;20460;-85
2023/06/24 03:25:19;;;;;;;26.53;24.73;;;;;;;;;;5101071;28;20456;-86
2023/06/24 03:27:46;;;;;;;27.23;25.40;;;;;;;;;;5107238;28;20441;-81
2023/06/24 03:30:14;;;;;;;26.83;25.23;;;;;;;;;;5098834;28;20459;-81
2023/06/24 03:32:46;;;;;;;26.13;24.53;;;;;;;;;;5096283;28;20555;-81
2023/06/24 03:35:14;;;;;;;26.13;24.53;;;;;;;;;;5095491;28;20438;-80
2023/06/24 03:37:41;;;;;;;25.70;24.17;;;;;;;;;;5095569;28;20419;-80
2023/06/24 03:40:14;;;;;;;25.13;23.43;;;;;;;;;;5096067;28;20468;-80
2023/06/24 03:42:41;;;;;;;27.73;25.20;;;;;;;;;;5096540;28;20439;-80
2023/06/24 03:45:08;;;;;;;25.83;24.30;;;;;;;;;;5099665;28;20476;-79
2023/06/24 03:47:35;;;;;;;25.23;23.63;;;;;;;;;;5106626;28;20484;-82
2023/06/24 03:50:04;;;;;;;25.43;23.83;;;;;;;;;;5113902;28;20419;-78
2023/06/24 03:52:31;;;;;;;25.10;23.60;;;;;;;;;;5113537;28;20408;-80
2023/06/24 03:54:58;;;;;;;26.13;24.43;;;;;;;;;;5096850;28;20469;-80
2023/06/24 03:57:25;;;;;;;26.70;24.80;;;;;;;;;;5095988;28;20925;-82
2023/06/24 03:59:52;;;;;;;26.17;24.47;;;;;;;;;;5095986;28;20502;-80
2023/06/24 04:02:19;;;;;;;24.40;23.00;;;;;;;;;;5096278;28;20445;-81
2023/06/24 04:04:51;;;;;;;25.70;24.10;;;;;;;;;;5096461;28;20936;-80
2023/06/24 04:07:26;;;;;;;26.80;25.10;;;;;;;;;;5096233;28;20448;-83
2023/06/24 04:09:55;;;;;;;25.40;23.70;;;;;;;;;;5097061;28;20562;-82
2023/06/24 04:12:22;;;;;;;26.00;24.10;;;;;;;;;;5095301;28;20491;-82
2023/06/24 04:14:49;;;;;;;28.03;25.60;;;;;;;;;;5095418;28;20478;-82
2023/06/24 04:17:16;;;;;;;24.70;23.30;;;;;;;;;;5095178;28;20473;-81
2023/06/24 04:19:44;;;;;;;26.23;24.67;;;;;;;;;;5096595;28;20914;-81
2023/06/24 04:22:11;;;;;;;24.90;23.30;;;;;;;;;;5102114;28;20503;-82
2023/06/24 04:24:39;;;;;;;24.70;23.20;;;;;;;;;;5108423;28;20488;-81
2023/06/24 04:27:07;;;;;;;25.90;24.30;;;;;;;;;;5105751;28;20583;-82
2023/06/24 04:29:34;;;;;;;25.07;23.67;;;;;;;;;;5102802;28;20988;-83
2023/06/24 04:32:01;;;;;;;26.60;24.70;;;;;;;;;;5101313;28;20424;-82
2023/06/24 04:34:28;;;;;;;26.30;24.50;;;;;;;;;;5100314;28;20830;-81
2023/06/24 04:36:55;;;;;;;25.27;23.67;;;;;;;;;;5099700;28;20438;-82
2023/06/24 04:39:22;;;;;;;24.20;22.70;;;;;;;;;;5099743;28;20419;-80
2023/06/24 04:41:51;;;;;;;25.33;23.73;;;;;;;;;;5103072;28;20483;-81
2023/06/24 04:44:19;;;;;;;25.23;23.57;;;;;;;;;;5104577;28;20465;-81
2023/06/24 04:46:46;;;;;;;25.07;23.37;;;;;;;;;;5102068;28;20931;-79
2023/06/24 04:49:13;;;;;;;26.93;25.13;;;;;;;;;;5103995;28;20533;-81
2023/06/24 04:51:42;;;;;;;27.10;25.10;;;;;;;;;;5102655;28;20468;-81
2023/06/24 04:54:09;;;;;;;26.00;24.40;;;;;;;;;;5103616;28;20447;-81
2023/06/24 04:56:36;;;;;;;27.13;25.40;;;;;;;;;;5102350;28;20443;-81
2023/06/24 04:59:04;;;;;;;28.77;26.87;;;;;;;;;;5102410;28;20526;-80
2023/06/24 05:01:31;;;;;;;27.43;25.67;;;;;;;;;;5101883;28;20526;-80
2023/06/24 05:03:58;;;;;;;28.30;26.50;;;;;;;;;;5101954;28;20429;-81
2023/06/24 05:06:25;;;;;;;27.73;26.00;;;;;;;;;;5100412;28;20465;-81
2023/06/24 05:08:52;;;;;;;27.33;25.53;;;;;;;;;;5099680;28;20840;-80
2023/06/24 05:11:19;;;;;;;28.80;26.60;;;;;;;;;;5100000;28;20447;-80
2023/06/24 05:13:46;;;;;;;26.23;24.43;;;;;;;;;;5099972;28;20452;-82
2023/06/24 05:16:16;;;;;;;26.77;25.00;;;;;;;;;;5099343;28;20457;-80
2023/06/24 05:18:43;;;;;;;28.03;26.07;;;;;;;;;;5099486;28;20465;-80
2023/06/24 05:21:10;;;;;;;27.67;25.60;;;;;;;;;;5099253;28;20506;-81
2023/06/24 05:23:37;;;;;;;27.47;25.57;;;;;;;;;;5099922;28;20428;-80
2023/06/24 05:26:04;;;;;;;27.10;25.10;;;;;;;;;;5099066;28;20448;-80
2023/06/24 05:28:31;;;;;;;27.97;25.97;;;;;;;;;;5099431;28;20521;-81
2023/06/24 05:30:58;;;;;;;28.07;26.00;;;;;;;;;;5098675;28;20992;-81
2023/06/24 05:33:26;;;;;;;29.17;27.03;;;;;;;;;;5099256;28;20426;-80
2023/06/24 05:35:53;;;;;;;27.57;25.47;;;;;;;;;;5098510;28;20450;-84
2023/06/24 05:38:21;;;;;;;26.73;24.93;;;;;;;;;;5099639;28;20445;-86
2023/06/24 05:40:48;;;;;;;27.17;25.03;;;;;;;;;;5101820;28;20472;-86
2023/06/24 05:43:15;;;;;;;27.13;25.03;;;;;;;;;;5102465;28;20486;-84
2023/06/24 05:45:42;;;;;;;26.80;24.77;;;;;;;;;;5100659;28;20482;-83
2023/06/24 05:48:09;;;;;;;25.83;24.13;;;;;;;;;;5101389;28;20564;-85
2023/06/24 05:50:37;;;;;;;27.00;25.00;;;;;;;;;;5097241;28;20458;-79
2023/06/24 05:53:04;;;;;;;26.40;24.60;;;;;;;;;;5097894;28;20427;-78
2023/06/24 05:55:31;;;;;;;27.10;25.00;;;;;;;;;;5097644;28;20480;-83
2023/06/24 05:57:58;;;;;;;28.67;26.43;;;;;;;;;;5097596;28;20921;-80
2023/06/24 06:00:25;;;;;;;27.77;25.53;;;;;;;;;;5097053;28;20489;-79
2023/06/24 06:02:52;;;;;;;27.73;25.47;;;;;;;;;;5097690;28;20408;-79
2023/06/24 06:05:19;;;;;;;26.90;25.00;;;;;;;;;;5096907;28;20490;-78
2023/06/24 06:07:48;;;;;;;27.67;25.23;;;;;;;;;;5094715;28;20477;-79
2023/06/24 06:10:17;;;;;;;27.47;25.47;;;;;;;;;;5095413;28;20518;-79
2023/06/24 06:12:44;;;;;;;26.50;24.80;;;;;;;;;;5095696;28;20518;-79
2023/06/24 06:15:11;;;;;;;27.10;24.87;;;;;;;;;;5096021;28;20457;-80
2023/06/24 06:17:38;;;;;;;26.83;24.80;;;;;;;;;;5095636;28;20914;-79
2023/06/24 06:20:06;;;;;;;26.23;24.33;;;;;;;;;;5096194;28;20463;-78
2023/06/24 06:22:37;;;;;;;28.73;26.60;;;;;;;;;;5095736;28;20484;-78
2023/06/24 06:25:06;;;;;;;27.40;25.27;;;;;;;;;;5096574;28;20411;-79
2023/06/24 06:27:33;;;;;;;27.93;25.90;;;;;;;;;;5095124;28;20455;-79
2023/06/24 06:30:00;;;;;;;26.93;25.13;;;;;;;;;;5095356;28;21431;-78
2023/06/24 06:32:27;;;;;;;27.57;25.67;;;;;;;;;;5095475;28;20461;-79
2023/06/24 06:34:54;;;;;;;27.80;26.00;;;;;;;;;;5095262;28;20428;-79
2023/06/24 06:37:21;;;;;;;28.13;26.07;;;;;;;;;;5094785;28;20477;-79
2023/06/24 06:39:48;;;;;;;28.77;26.87;;;;;;;;;;5095430;28;20933;-78
2023/06/24 06:42:17;;;;;;;27.07;25.10;;;;;;;;;;5095374;28;20730;-78
2023/06/24 06:44:44;;;;;;;28.90;26.60;;;;;;;;;;5095625;28;20443;-79
2023/06/24 06:47:12;;;;;;;28.77;26.60;;;;;;;;;;5095085;28;20480;-79
2023/06/24 06:49:39;;;;;;;28.03;26.10;;;;;;;;;;5095182;28;20419;-79
2023/06/24 06:52:06;;;;;;;30.73;28.30;;;;;;;;;;5095602;28;20975;-79
2023/06/24 06:54:33;;;;;;;28.57;26.57;;;;;;;;;;5095265;28;20851;-79
2023/06/24 06:57:01;;;;;;;28.93;26.97;;;;;;;;;;5094665;28;20424;-80
2023/06/24 06:59:30;;;;;;;30.00;27.70;;;;;;;;;;5095714;28;20431;-78
2023/06/24 07:01:57;;;;;;;27.13;25.23;;;;;;;;;;5094242;28;20525;-79
2023/06/24 07:04:24;;;;;;;30.00;27.30;;;;;;;;;;5095416;28;20423;-78
2023/06/24 07:06:51;;;;;;;29.60;27.60;;;;;;;;;;5094163;28;20554;-79
2023/06/24 07:09:18;;;;;;;30.67;28.47;;;;;;;;;;5094903;28;20501;-79
2023/06/24 07:11:45;;;;;;;30.30;28.10;;;;;;;;;;5093612;28;20481;-78
2023/06/24 07:14:12;;;;;;;29.80;27.50;;;;;;;;;;5094074;28;20448;-79
2023/06/24 07:16:40;;;;;;;30.80;28.70;;;;;;;;;;5094085;28;20484;-79
2023/06/24 07:19:07;;;;;;;29.97;27.77;;;;;;;;;;5094664;28;20498;-79
2023/06/24 07:21:34;;;;;;;30.50;28.40;;;;;;;;;;5093794;28;20844;-78
2023/06/24 07:24:01;;;;;;;29.07;27.07;;;;;;;;;;5095127;28;20483;-78
2023/06/24 07:26:30;;;;;;;30.70;28.30;;;;;;;;;;5093955;28;20464;-78
2023/06/24 07:28:58;;;;;;;30.83;28.57;;;;;;;;;;5093933;28;20546;-79
2023/06/24 07:31:25;;;;;;;29.43;27.23;;;;;;;;;;5094177;28;20444;-78
2023/06/24 07:33:53;;;;;;;30.60;28.50;;;;;;;;;;5093937;28;20457;-76
2023/06/24 07:36:20;;;;;;;31.23;29.03;;;;;;;;;;5093661;28;20428;-79
2023/06/24 07:38:47;;;;;;;30.57;28.47;;;;;;;;;;5094770;28;20415;-79
2023/06/24 07:41:14;;;;;;;31.70;29.30;;;;;;;;;;5094302;28;20444;-77
2023/06/24 07:43:41;;;;;;;31.83;29.40;;;;;;;;;;5092950;28;20439;-79
2023/06/24 07:46:08;;;;;;;29.90;27.80;;;;;;;;;;5092357;28;20488;-84
2023/06/24 07:48:35;;;;;;;30.77;28.60;;;;;;;;;;5094874;28;20484;-83
2023/06/24 07:51:04;;;;;;;29.03;26.93;;;;;;;;;;5094442;28;20504;-86
2023/06/24 07:53:33;;;;;;;30.40;28.10;;;;;;;;;;5094286;28;20916;-85
2023/06/24 07:56:00;;;;;;;28.83;26.73;;;;;;;;;;5093978;28;20465;-81
2023/06/24 07:58:27;;;;;;;30.00;28.00;;;;;;;;;;5095035;28;20457;-79
2023/06/24 08:00:54;;;;;;;31.00;28.70;;;;;;;;;;5094994;28;20473;-80
2023/06/24 08:03:21;;;;;;;28.77;26.87;;;;;;;;;;5094608;28;20514;-78
2023/06/24 08:05:49;;;;;;;28.90;26.70;;;;;;;;;;5094274;28;20435;-79
2023/06/24 08:08:19;;;;;;;30.30;28.10;;;;;;;;;;5096961;28;20474;-78
2023/06/24 08:10:46;;;;;;;29.80;27.90;;;;;;;;;;5093148;28;20475;-77
2023/06/24 08:13:13;;;;;;;29.50;27.27;;;;;;;;;;5093614;28;20444;-79
2023/06/24 08:15:40;;;;;;;27.20;25.30;;;;;;;;;;5094482;28;20510;-78
2023/06/24 08:18:07;;;;;;;29.50;27.30;;;;;;;;;;5097579;28;20519;-79
2023/06/24 08:20:34;;;;;;;27.13;25.43;;;;;;;;;;5098134;28;20468;-79
2023/06/24 08:23:01;;;;;;;27.33;25.53;;;;;;;;;;5098540;28;20411;-79
2023/06/24 08:25:30;;;;;;;26.80;25.00;;;;;;;;;;5098232;28;20440;-79
2023/06/24 08:27:57;;;;;;;27.00;25.00;;;;;;;;;;5097302;28;21237;-79
2023/06/24 08:30:24;;;;;;;27.97;25.80;;;;;;;;;;5097789;28;20518;-79
2023/06/24 08:32:51;;;;;;;26.77;25.07;;;;;;;;;;5098022;28;20457;-78
2023/06/24 08:35:18;;;;;;;28.13;26.23;;;;;;;;;;5098069;28;20444;-80
2023/06/24 08:37:45;;;;;;;27.10;25.30;;;;;;;;;;5097166;28;20476;-79
2023/06/24 08:40:12;;;;;;;28.70;26.50;;;;;;;;;;5096873;28;20484;-78
2023/06/24 08:42:41;;;;;;;28.67;26.60;;;;;;;;;;5096980;28;20913;-77
2023/06/24 08:45:08;;;;;;;27.60;25.67;;;;;;;;;;5097572;28;20445;-79
2023/06/24 08:47:36;;;;;;;28.70;26.40;;;;;;;;;;5096504;28;20484;-78
2023/06/24 08:50:05;;;;;;;27.77;25.87;;;;;;;;;;5096759;28;20461;-78
2023/06/24 08:52:33;;;;;;;26.83;24.93;;;;;;;;;;5096773;28;20434;-77
2023/06/24 08:55:01;;;;;;;29.40;27.50;;;;;;;;;;5097195;28;20457;-78
2023/06/24 08:57:28;;;;;;;27.67;25.77;;;;;;;;;;5096458;28;20431;-81
2023/06/24 08:59:56;;;;;;;27.60;25.70;;;;;;;;;;5096843;28;20868;-79
2023/06/24 09:02:23;;;;;;;29.40;27.40;;;;;;;;;;5096882;28;20468;-78
2023/06/24 09:04:52;;;;;;;1030.97;953.50;;;;;;;;;;5096985;28;20449;-81
2023/06/24 09:07:24;;;;;;;27.93;26.13;;;;;;;;;;5096794;28;20484;-85
2023/06/24 09:09:51;;;;;;;27.63;25.87;;;;;;;;;;5096981;28;20437;-86
2023/06/24 09:12:18;;;;;;;27.50;25.80;;;;;;;;;;5096300;28;20448;-85
2023/06/24 09:14:49;;;;;;;26.40;24.60;;;;;;;;;;5097138;28;21000;-86
2023/06/24 09:17:18;;;;;;;27.03;25.30;;;;;;;;;;5096571;28;20464;-82
2023/06/24 09:19:45;;;;;;;28.00;26.20;;;;;;;;;;5096786;28;20433;-85
2023/06/24 09:22:17;;;;;;;26.93;25.33;;;;;;;;;;5096243;28;20464;-85
2023/06/24 09:24:46;;;;;;;793.67;723.43;;;;;;;;;;5095579;28;20927;-74
2023/06/24 09:27:13;;;;;;;748.03;689.10;;;;;;;;;;5093245;28;20460;-75
2023/06/24 09:29:41;;;;;;;300.10;274.67;;;;;;;;;;5093503;28;21010;-73
2023/06/24 09:32:08;;;;;;;29.30;27.33;;;;;;;;;;5093720;28;20499;-74
2023/06/24 09:34:37;;;;;;;889.47;814.78;;;;;;;;;;5093961;28;20569;-73
2023/06/24 09:37:04;;;;;;;772.63;704.47;;;;;;;;;;5093463;28;20264;-74
2023/06/24 09:39:36;;;;;;;858.95;781.42;;;;;;;;;;5094097;28;20199;-74
2023/06/24 09:42:03;;;;;;;674.72;613.00;;;;;;;;;;5093059;28;20207;-74
2023/06/24 09:44:31;;;;;;;642.63;580.58;;;;;;;;;;5093999;28;20230;-75
2023/06/24 09:46:58;;;;;;;921.67;848.88;;;;;;;;;;5093317;28;20289;-75
2023/06/24 09:49:25;;;;;;;799.15;724.72;;;;;;;;;;5093946;28;20639;-76
2023/06/24 09:51:56;;;;;;;832.92;749.60;;;;;;;;;;5093820;28;20304;-75
2023/06/24 09:54:25;;;;;;;721.05;655.22;;;;;;;;;;5093914;28;20179;-76
2023/06/24 09:56:53;;;;;;;708.63;645.03;;;;;;;;;;5093283;28;20206;-75
2023/06/24 09:59:21;;;;;;;799.05;720.55;;;;;;;;;;5093254;28;20203;-75
2023/06/24 10:01:48;;;;;;;767.50;700.70;;;;;;;;;;5093277;28;20071;-75
2023/06/24 10:04:17;;;;;;;177.70;160.50;;;;;;;;;;5095074;28;20341;-83
2023/06/24 10:06:44;;;;;;;21.73;20.23;;;;;;;;;;5096392;28;20225;-82
2023/06/24 10:09:17;;;;;;;48.83;45.90;;;;;;;;;;5096329;28;20859;-83
2023/06/24 10:11:45;;;;;;;23.03;21.53;;;;;;;;;;5096136;28;20883;-82
2023/06/24 10:14:12;;;;;;;831.57;774.63;;;;;;;;;;5097800;28;20845;-82
2023/06/24 10:16:39;;;;;;;29.40;27.60;;;;;;;;;;5096702;28;20423;-87
2023/06/24 10:19:06;;;;;;;26.17;24.47;;;;;;;;;;5097037;28;20423;-81
2023/06/24 10:21:47;;;;;;;27.07;25.27;;;;;;;;;;5096638;28;20464;-82
2023/06/24 10:24:14;;;;;;;27.50;25.60;;;;;;;;;;5095512;28;20835;-81
2023/06/24 10:26:43;;;;;;;26.57;24.50;;;;;;;;;;5094921;28;20449;-81
2023/06/24 10:29:10;;;;;;;27.60;25.70;;;;;;;;;;5094777;28;20538;-81
2023/06/24 10:31:53;;;;;;;27.03;24.80;;;;;;;;;;5095315;28;20795;-82
2023/06/24 10:34:29;;;;;;;28.73;26.50;;;;;;;;;;5093318;28;20505;-81
2023/06/24 10:36:57;;;;;;;28.67;26.67;;;;;;;;;;5094902;28;20445;-82
2023/06/24 10:39:39;;;;;;;27.97;26.10;;;;;;;;;;5094862;28;20452;-82
2023/06/24 10:42:25;;;;;;;28.20;26.30;;;;;;;;;;5095846;28;20449;-82
2023/06/24 10:44:54;;;;;;;33.97;31.77;;;;;;;;;;5095956;28;20796;-81
2023/06/24 10:47:23;;;;;;;31.80;29.60;;;;;;;;;;5095268;28;20490;-83
2023/06/24 10:49:50;;;;;;;31.33;29.43;;;;;;;;;;5094559;28;20479;-82
2023/06/24 10:52:20;;;;;;;33.53;31.13;;;;;;;;;;5096718;28;20445;-83
2023/06/24 10:54:47;;;;;;;34.20;31.90;;;;;;;;;;5096446;28;20758;-83
2023/06/24 10:57:14;;;;;;;35.70;33.30;;;;;;;;;;5094847;28;20463;-82
2023/06/24 10:59:41;;;;;;;32.53;30.43;;;;;;;;;;5094607;28;20832;-81
2023/06/24 11:02:10;;;;;;;35.37;33.07;;;;;;;;;;5095401;28;20790;-82
2023/06/24 11:04:43;;;;;;;34.00;31.90;;;;;;;;;;5095551;28;20423;-81
2023/06/24 11:07:10;;;;;;;35.73;33.20;;;;;;;;;;5094963;28;20473;-81
2023/06/24 11:09:37;;;;;;;34.93;32.87;;;;;;;;;;5094304;28;20542;-82
2023/06/24 11:12:05;;;;;;;33.40;31.27;;;;;;;;;;5093936;28;20830;-81
2023/06/24 11:14:34;;;;;;;34.00;31.77;;;;;;;;;;5094821;28;20423;-82
2023/06/24 11:17:02;;;;;;;33.40;31.50;;;;;;;;;;5094104;28;20811;-81
2023/06/24 11:19:30;;;;;;;33.17;31.07;;;;;;;;;;5095010;28;20445;-81
2023/06/24 11:22:00;;;;;;;34.03;32.03;;;;;;;;;;5094489;28;20507;-81
2023/06/24 11:24:27;;;;;;;33.33;30.97;;;;;;;;;;5094837;28;20513;-81
2023/06/24 11:26:54;;;;;;;32.93;31.00;;;;;;;;;;5094194;28;20449;-81
2023/06/24 11:29:21;;;;;;;31.83;29.90;;;;;;;;;;5094585;28;20464;-81
2023/06/24 11:31:48;;;;;;;32.63;30.43;;;;;;;;;;5094010;28;20546;-82
2023/06/24 11:34:15;;;;;;;31.67;29.47;;;;;;;;;;5094810;28;20427;-80
2023/06/24 11:36:44;;;;;;;32.70;30.50;;;;;;;;;;5094332;28;20441;-81
2023/06/24 11:39:22;;;;;;;30.10;28.30;;;;;;;;;;5095539;28;20471;-81
2023/06/24 11:41:49;;;;;;;30.20;28.10;;;;;;;;;;5094778;28;20518;-80
2023/06/24 11:44:16;;;;;;;32.90;30.97;;;;;;;;;;5095768;28;20445;-80
2023/06/24 11:46:43;;;;;;;31.10;29.30;;;;;;;;;;5094600;28;20957;-81
2023/06/24 11:49:10;;;;;;;30.40;28.70;;;;;;;;;;5094410;28;20520;-80
2023/06/24 11:51:37;;;;;;;29.67;27.77;;;;;;;;;;5099673;28;20464;-81
2023/06/24 11:54:06;;;;;;;30.90;29.10;;;;;;;;;;5100075;28;20453;-81
2023/06/24 11:56:37;;;;;;;30.70;28.83;;;;;;;;;;5098575;28;20521;-80
2023/06/24 11:59:06;;;;;;;30.90;29.10;;;;;;;;;;5099076;28;20418;-80
2023/06/24 12:01:33;;;;;;;31.70;29.80;;;;;;;;;;5098781;28;20942;-80
2023/06/24 12:04:01;;;;;;;33.33;31.37;;;;;;;;;;5099568;28;20581;-80
2023/06/24 12:06:28;;;;;;;31.13;29.33;;;;;;;;;;5098118;28;20427;-81
2023/06/24 12:08:55;;;;;;;30.33;28.53;;;;;;;;;;5098752;28;20447;-80
2023/06/24 12:11:23;;;;;;;30.63;29.03;;;;;;;;;;5098389;28;20459;-81
2023/06/24 12:13:50;;;;;;;32.17;30.37;;;;;;;;;;5099023;28;20423;-81
2023/06/24 12:16:17;;;;;;;30.10;28.17;;;;;;;;;;5098216;28;20454;-80
2023/06/24 12:18:44;;;;;;;31.77;29.90;;;;;;;;;;5098811;28;20480;-80
2023/06/24 12:21:11;;;;;;;29.87;28.27;;;;;;;;;;5097743;28;20447;-80
2023/06/24 12:23:38;;;;;;;30.10;28.40;;;;;;;;;;5098486;28;20472;-80
2023/06/24 12:26:05;;;;;;;28.00;26.30;;;;;;;;;;5097655;28;20424;-81
2023/06/24 12:28:34;;;;;;;29.77;28.17;;;;;;;;;;5098296;28;20496;-81
2023/06/24 12:31:01;;;;;;;29.97;28.30;;;;;;;;;;5097853;28;20557;-81
2023/06/24 12:33:28;;;;;;;28.63;26.93;;;;;;;;;;5097842;28;20444;-81
2023/06/24 12:35:55;;;;;;;27.90;26.30;;;;;;;;;;5097498;28;20436;-80
2023/06/24 12:38:22;;;;;;;28.53;26.73;;;;;;;;;;5097851;28;20453;-80
2023/06/24 12:40:49;;;;;;;27.83;26.23;;;;;;;;;;5097621;28;20522;-81
2023/06/24 12:43:16;;;;;;;26.80;24.97;;;;;;;;;;5097125;28;20464;-80
2023/06/24 12:45:44;;;;;;;27.23;25.57;;;;;;;;;;5096708;28;20478;-81
2023/06/24 12:48:11;;;;;;;27.50;25.77;;;;;;;;;;5097237;28;20448;-80
2023/06/24 12:50:38;;;;;;;26.80;25.10;;;;;;;;;;5097352;28;20949;-82
2023/06/24 12:53:05;;;;;;;26.40;24.90;;;;;;;;;;5098196;28;20449;-81
2023/06/24 12:55:33;;;;;;;26.80;25.30;;;;;;;;;;5097236;28;20814;-83
2023/06/24 12:58:00;;;;;;;31.13;29.13;;;;;;;;;;5097072;28;20469;-80
2023/06/24 13:00:27;;;;;;;202.57;190.30;;;;;;;;;;5097545;28;20446;-81
2023/06/24 13:02:55;;;;;;;1093.60;999.90;;;;;;;;;;5097600;28;20440;-81
2023/06/24 13:05:22;;;;;;;1062.20;983.87;;;;;;;;;;5097638;28;20445;-82
2023/06/24 13:07:50;;;;;;;1083.27;999.90;;;;;;;;;;5097423;28;20447;-80
2023/06/24 13:10:17;;;;;;;1087.33;999.17;;;;;;;;;;5097280;28;20492;-81
2023/06/24 13:12:44;;;;;;;1104.83;999.90;;;;;;;;;;5097615;28;20445;-81
2023/06/24 13:15:11;;;;;;;1104.03;999.90;;;;;;;;;;5097245;28;20444;-80
2023/06/24 13:17:38;;;;;;;1095.22;999.90;;;;;;;;;;5096116;28;20209;-81
2023/06/24 13:20:07;;;;;;;1087.32;999.90;;;;;;;;;;5097749;28;20223;-80
2023/06/24 13:22:34;;;;;;;1116.85;999.90;;;;;;;;;;5096526;28;20207;-81
2023/06/24 13:25:01;;;;;;;1096.22;999.90;;;;;;;;;;5096865;28;20252;-81
2023/06/24 13:27:28;;;;;;;1081.53;997.72;;;;;;;;;;5096685;28;20211;-81
2023/06/24 13:29:56;;;;;;;1098.75;999.90;;;;;;;;;;5096875;28;20252;-80
2023/06/24 13:32:23;;;;;;;1107.53;999.90;;;;;;;;;;5097226;28;20203;-81
2023/06/24 13:34:50;;;;;;;1103.50;999.90;;;;;;;;;;5097204;28;20844;-82
2023/06/24 13:37:18;;;;;;;1095.68;999.90;;;;;;;;;;5096505;28;20199;-81
2023/06/24 13:39:45;;;;;;;1106.80;999.90;;;;;;;;;;5097033;28;20942;-80
2023/06/24 13:42:12;;;;;;;1110.10;999.90;;;;;;;;;;5097294;28;20207;-81
2023/06/24 13:44:39;;;;;;;1057.85;976.67;;;;;;;;;;5097010;28;20202;-82
2023/06/24 13:47:07;;;;;;;1058.72;980.58;;;;;;;;;;5096607;28;20655;-82
2023/06/24 13:49:35;;;;;;;1058.57;982.70;;;;;;;;;;5096718;28;20748;-81
2023/06/24 13:52:02;;;;;;;1072.35;995.15;;;;;;;;;;5096292;28;20663;-81
2023/06/24 13:54:32;;;;;;;1071.80;991.40;;;;;;;;;;5097018;28;20207;-81
2023/06/24 13:56:59;;;;;;;1088.95;999.50;;;;;;;;;;5096564;28;20549;-80
2023/06/24 13:59:26;;;;;;;1097.22;999.90;;;;;;;;;;5097202;28;20601;-80
2023/06/24 14:01:53;;;;;;;1107.10;999.90;;;;;;;;;;5096373;28;20231;-80
2023/06/24 14:04:20;;;;;;;1097.40;999.90;;;;;;;;;;5096713;28;20829;-80
2023/06/24 14:06:47;;;;;;;1110.85;999.90;;;;;;;;;;5095596;28;20203;-81
2023/06/24 14:09:14;;;;;;;1025.03;947.87;;;;;;;;;;5096520;28;20218;-81
2023/06/24 14:11:43;;;;;;;1015.35;940.05;;;;;;;;;;5096371;28;20226;-80
2023/06/24 14:14:10;;;;;;;1050.43;974.10;;;;;;;;;;5096411;28;20565;-80
2023/06/24 14:16:37;;;;;;;1062.93;985.20;;;;;;;;;;5095633;28;20215;-80